Terminal Aerodrome Forecast
Issued by NWS Mt. Holly, NJ

Home | Current Version | Previous Version | Text Only | Print | Product List | Glossary On
Versions: 1 2 3 4 5 6 7 8 9 10 11 12 13 14 15 16 17 18
000
FTUS41 KPHI 300534
TAFILG
TAF
KILG 300534Z 3006/3106 20006KT P6SM SCT250
     FM300800 19006KT P6SM BKN100
     FM301400 21010KT P6SM SCT045
     FM301800 25008KT P6SM BKN100
      TEMPO 3019/3023 4SM -TSRA BR BKN025CB
     FM302300 28005KT P6SM OVC250=

USA.gov is the U.S. government's official web portal to all federal, state and local government web resources and services.